Centerville, Massachusetts
Current Conditions -  °F | °C
As of 2:56 PM on Thursday 29 Jan 2015 (Local Time) from KHYA Reporting Station
Clear Clear  
Wind Chill: 28°   Ceiling: Unl
Heat Index: 33°   Visibility: 10mi
Dew Point: 24°   Wind: 6mph
Humidity: 70%   Direction: 350°N
Pressure: 30.18"   Gusts: NA
Location:  41.65°N, 70.35°W
Report Text: KHYA 291956Z 35005KT 10SM CLR 01/M04 A3018 RMK AO2 SLP222 T00061044
Loading
Personal Weather Stations






























Interactive Weather Map New forecast layout! Learn more

10-Day Weather Forecast

Advertisements
Track Severe Weather on mobile